MHLC/LCE METAR and TAF weather

Enter ICAO airport designator
Station Type Date Time Source
MHLC METAR 2021/03/02 14:00 UTC NOAA

MHLC 021400Z 00000KT 9999 FEW028 25/20 Q1014 A2995 NOSIG


Station Type Date Time Source
MHLC Decoded METAR 2021/03/02 14:00 UTC NOAA

La Ceiba Airport , Honduras (MHLC) 15-44N 086-52W 26M
Mar 02, 2021 - 09:00 AM EST / 2021.03.02 1400 UTC
Wind: Calm:0
Visibility: greater than 7 mile(s):0
Sky conditions: mostly clear
Temperature: 77 F (25 C)
Dew Point: 68 F (20 C)
Relative Humidity: 73%
Pressure (altimeter): 29.95 in. Hg (1014 hPa)
ob: MHLC 021400Z 00000KT 9999 FEW028 25/20 Q1014 A2995 NOSIG
cycle: 14

Station Type Date Time Source
MHLC TAF 2021/03/02 12:33 UTC NOAA

TAF MHLC 021000Z 0212/0312 15007KT 9999 SCT025 TX30/0219Z TN20/0312Z
BECMG 0218/0220 06006KT SCT032TCU
BECMG 0300/03002 7000 VCSH SCT030TCU SCT080
BECMG 0306/0308 09010KT 9999 NSW SCT030

Example: see airport list